Kerrick, TX (79051)

6:33 PM CDT on September 20, 2014 (GMT -0500)
Dalhart Municipal | Change Station
CLOSE
Current Station
Airport
Location: Dalhart,
Elevation: 3990 ft
Nearby Weather Stations

Elev 3990 ft 36.03 °N, 102.55 °W | Updated 40 minutes ago

Clear
Clear
85 °F
Feels Like 85 °F
N
9
Wind Variable Wind from SE

Today
High -- | Low -- °F
--% Chance of Precip.
Yesterday
High -- | Low -- °F
Precip. -- in
7:35 AM 7:48 PM
Waning Crescent, 10% visible
Pressure 29.93 in
Visibility 10.0 miles
Clouds Clear
Heat Index 85 °F
Dew Point 60 °F
Humidity 43%
Rainfall 0.00 in
Snow Depth Not available.
UV 2 out of 12
Pollen 5.60 out of 12
Air Quality Not available.
Flu Activity Not available.
METAR KDHT 202253Z AUTO 14008KT 10SM CLR 29/16 A3009 RMK AO2 SLP133 T02940156

More Conditions Fewer Conditions

Pressure 29.93 in
Visibility 10.0 miles
Clouds Clear
Heat Index 85 °F
Dew Point 60 °F
Humidity 43%
Rainfall 0.00 in
Snow Depth Not available.
UV 2 out of 12
Pollen 5.60 out of 12
Air Quality Not available.
Flu Activity Not available.
METAR KDHT 202253Z AUTO 14008KT 10SM CLR 29/16 A3009 RMK AO2 SLP133 T02940156

More Conditions Fewer Conditions

10-Day Weather Forecast

Almanac

Astronomy

Sep. 20, 2014 Rise Set
Actual Time 7:35 AM CDT 7:48 PM CDT
Civil Twilight 7:09 AM CDT 8:14 PM CDT
Nautical Twilight 6:39 AM CDT 8:44 PM CDT
Astronomical Twilight 6:08 AM CDT 9:15 PM CDT
Moon 4:20 AM CDT 5:49 PM CDT
Length of Visible Light 13h 04m
Length of Day
12h 13m
Tomorrow will be 2m 18s shorter.
Waning Crescent, 10% of the Moon is Illuminated
Today
Waning Crescent
Sep 24
New
Oct 1
First Quarter
Oct 8
Full
Oct 15
Last Quarter

Today's Extremes

State Highs State Lows

Community

WunderPhotos

Upload Photos

1,754,979 photos uploaded!

WunderBlogs® & News

Nearby

Snow Depth

Station Depth Elevation
No new snow has been reported.

Earthquake Activity

City Distance Mag. Time & Date
No recent earthquake activity has been reported nearby.
Minimum magnitude displayed is 2.5.

Coastal Water Temperatures

Place Temperature
No Stations Reporting

Nearby Weather Stations